sensor_id;sensor_type;location;lat;lon;timestamp;P1;durP1;ratioP1;P2;durP2;ratioP2
80179;SDS011;69505;52.134;5.438;2023-09-08T00:02:27;10.68;;;7.18;;
80179;SDS011;69505;52.134;5.438;2023-09-08T00:04:54;10.40;;;6.82;;
80179;SDS011;69505;52.134;5.438;2023-09-08T00:07:21;9.60;;;7.32;;
80179;SDS011;69505;52.134;5.438;2023-09-08T00:09:48;9.63;;;6.80;;
80179;SDS011;69505;52.134;5.438;2023-09-08T00:12:14;10.43;;;6.68;;
80179;SDS011;69505;52.134;5.438;2023-09-08T00:14:41;10.88;;;7.70;;
80179;SDS011;69505;52.134;5.438;2023-09-08T00:17:08;8.13;;;7.13;;
80179;SDS011;69505;52.134;5.438;2023-09-08T00:19:35;9.65;;;7.50;;
80179;SDS011;69505;52.134;5.438;2023-09-08T00:22:01;9.27;;;7.18;;
80179;SDS011;69505;52.134;5.438;2023-09-08T00:24:29;9.10;;;7.22;;
80179;SDS011;69505;52.134;5.438;2023-09-08T00:26:55;8.75;;;7.30;;
80179;SDS011;69505;52.134;5.438;2023-09-08T00:29:22;9.68;;;7.47;;
80179;SDS011;69505;52.134;5.438;2023-09-08T00:31:49;9.57;;;7.32;;
80179;SDS011;69505;52.134;5.438;2023-09-08T00:34:15;9.65;;;7.63;;
80179;SDS011;69505;52.134;5.438;2023-09-08T00:36:42;8.77;;;7.28;;
80179;SDS011;69505;52.134;5.438;2023-09-08T00:39:08;10.23;;;7.43;;
80179;SDS011;69505;52.134;5.438;2023-09-08T00:41:35;9.02;;;6.25;;
80179;SDS011;69505;52.134;5.438;2023-09-08T00:44:02;9.82;;;7.63;;
80179;SDS011;69505;52.134;5.438;2023-09-08T00:46:29;9.63;;;7.38;;
80179;SDS011;69505;52.134;5.438;2023-09-08T00:48:57;11.52;;;7.38;;
80179;SDS011;69505;52.134;5.438;2023-09-08T00:51:23;9.45;;;8.02;;
80179;SDS011;69505;52.134;5.438;2023-09-08T00:53:50;11.32;;;8.05;;
80179;SDS011;69505;52.134;5.438;2023-09-08T00:56:17;9.38;;;8.07;;
80179;SDS011;69505;52.134;5.438;2023-09-08T00:58:44;10.32;;;8.05;;
80179;SDS011;69505;52.134;5.438;2023-09-08T01:01:11;10.95;;;8.93;;
80179;SDS011;69505;52.134;5.438;2023-09-08T01:03:37;10.63;;;7.38;;
80179;SDS011;69505;52.134;5.438;2023-09-08T01:06:04;9.43;;;8.25;;
80179;SDS011;69505;52.134;5.438;2023-09-08T01:08:32;8.85;;;7.30;;
80179;SDS011;69505;52.134;5.438;2023-09-08T01:10:59;8.77;;;6.68;;
80179;SDS011;69505;52.134;5.438;2023-09-08T01:13:26;10.60;;;8.18;;
80179;SDS011;69505;52.134;5.438;2023-09-08T01:15:53;10.15;;;8.25;;
80179;SDS011;69505;52.134;5.438;2023-09-08T01:18:19;9.65;;;8.52;;
80179;SDS011;69505;52.134;5.438;2023-09-08T01:26:25;10.05;;;8.15;;
80179;SDS011;69505;52.134;5.438;2023-09-08T01:28:56;12.93;;;9.15;;
80179;SDS011;69505;52.134;5.438;2023-09-08T01:31:24;10.55;;;8.32;;
80179;SDS011;69505;52.134;5.438;2023-09-08T01:33:51;10.48;;;8.30;;
80179;SDS011;69505;52.134;5.438;2023-09-08T01:36:18;9.20;;;6.40;;
80179;SDS011;69505;52.134;5.438;2023-09-08T01:38:44;10.40;;;8.23;;
80179;SDS011;69505;52.134;5.438;2023-09-08T01:41:11;10.55;;;8.07;;
80179;SDS011;69505;52.134;5.438;2023-09-08T01:43:38;12.60;;;7.45;;
80179;SDS011;69505;52.134;5.438;2023-09-08T01:46:04;11.00;;;8.85;;
80179;SDS011;69505;52.134;5.438;2023-09-08T01:48:31;11.90;;;9.02;;
80179;SDS011;69505;52.134;5.438;2023-09-08T01:50:58;11.35;;;8.65;;
80179;SDS011;69505;52.134;5.438;2023-09-08T01:53:25;11.05;;;9.02;;
80179;SDS011;69505;52.134;5.438;2023-09-08T01:55:51;11.35;;;8.65;;
80179;SDS011;69505;52.134;5.438;2023-09-08T01:58:18;10.77;;;9.30;;
80179;SDS011;69505;52.134;5.438;2023-09-08T02:00:48;10.15;;;8.52;;
80179;SDS011;69505;52.134;5.438;2023-09-08T02:03:16;10.88;;;8.77;;
80179;SDS011;69505;52.134;5.438;2023-09-08T02:05:43;11.75;;;9.25;;
80179;SDS011;69505;52.134;5.438;2023-09-08T02:08:11;11.68;;;9.05;;
80179;SDS011;69505;52.134;5.438;2023-09-08T02:10:39;12.55;;;9.63;;
80179;SDS011;69505;52.134;5.438;2023-09-08T02:13:06;11.30;;;9.23;;
80179;SDS011;69505;52.134;5.438;2023-09-08T02:15:34;13.60;;;9.45;;
80179;SDS011;69505;52.134;5.438;2023-09-08T02:18:03;11.18;;;9.63;;
80179;SDS011;69505;52.134;5.438;2023-09-08T02:20:30;14.50;;;9.60;;
80179;SDS011;69505;52.134;5.438;2023-09-08T02:22:57;12.25;;;9.52;;
80179;SDS011;69505;52.134;5.438;2023-09-08T02:25:24;12.25;;;10.43;;
80179;SDS011;69505;52.134;5.438;2023-09-08T02:27:51;11.75;;;9.27;;
80179;SDS011;69505;52.134;5.438;2023-09-08T02:30:17;12.50;;;10.13;;
80179;SDS011;69505;52.134;5.438;2023-09-08T02:32:44;10.70;;;9.50;;
80179;SDS011;69505;52.134;5.438;2023-09-08T02:35:12;11.85;;;9.07;;
80179;SDS011;69505;52.134;5.438;2023-09-08T02:37:38;11.13;;;9.20;;
80179;SDS011;69505;52.134;5.438;2023-09-08T02:40:05;12.13;;;9.98;;
80179;SDS011;69505;52.134;5.438;2023-09-08T02:42:33;12.70;;;10.65;;
80179;SDS011;69505;52.134;5.438;2023-09-08T02:45:00;10.88;;;8.95;;
80179;SDS011;69505;52.134;5.438;2023-09-08T02:47:26;13.73;;;9.88;;
80179;SDS011;69505;52.134;5.438;2023-09-08T02:49:53;12.30;;;10.10;;
80179;SDS011;69505;52.134;5.438;2023-09-08T02:52:19;16.17;;;8.30;;
80179;SDS011;69505;52.134;5.438;2023-09-08T02:54:46;16.73;;;9.85;;
80179;SDS011;69505;52.134;5.438;2023-09-08T02:57:12;12.40;;;9.52;;
80179;SDS011;69505;52.134;5.438;2023-09-08T02:59:39;11.07;;;9.38;;
80179;SDS011;69505;52.134;5.438;2023-09-08T03:02:06;16.42;;;10.18;;
80179;SDS011;69505;52.134;5.438;2023-09-08T03:04:32;12.43;;;10.63;;
80179;SDS011;69505;52.134;5.438;2023-09-08T03:06:59;12.60;;;10.35;;
80179;SDS011;69505;52.134;5.438;2023-09-08T03:09:25;11.73;;;8.52;;
80179;SDS011;69505;52.134;5.438;2023-09-08T03:11:52;13.48;;;10.40;;
80179;SDS011;69505;52.134;5.438;2023-09-08T03:14:19;12.80;;;9.82;;
80179;SDS011;69505;52.134;5.438;2023-09-08T03:16:45;13.65;;;10.35;;
80179;SDS011;69505;52.134;5.438;2023-09-08T03:19:12;13.68;;;10.52;;
80179;SDS011;69505;52.134;5.438;2023-09-08T03:21:39;14.98;;;9.90;;
80179;SDS011;69505;52.134;5.438;2023-09-08T03:24:05;12.90;;;10.48;;
80179;SDS011;69505;52.134;5.438;2023-09-08T03:26:32;12.63;;;10.15;;
80179;SDS011;69505;52.134;5.438;2023-09-08T03:28:58;15.65;;;11.23;;
80179;SDS011;69505;52.134;5.438;2023-09-08T03:31:25;12.13;;;10.68;;
80179;SDS011;69505;52.134;5.438;2023-09-08T03:33:52;12.45;;;10.02;;
80179;SDS011;69505;52.134;5.438;2023-09-08T03:36:19;15.07;;;10.73;;
80179;SDS011;69505;52.134;5.438;2023-09-08T03:38:45;13.90;;;10.48;;
80179;SDS011;69505;52.134;5.438;2023-09-08T03:41:12;12.98;;;10.43;;
80179;SDS011;69505;52.134;5.438;2023-09-08T03:43:39;12.80;;;9.48;;
80179;SDS011;69505;52.134;5.438;2023-09-08T03:46:06;14.05;;;10.65;;
80179;SDS011;69505;52.134;5.438;2023-09-08T03:48:32;12.93;;;9.20;;
80179;SDS011;69505;52.134;5.438;2023-09-08T03:50:59;14.15;;;11.27;;
80179;SDS011;69505;52.134;5.438;2023-09-08T03:53:26;14.60;;;10.63;;
80179;SDS011;69505;52.134;5.438;2023-09-08T03:55:52;13.70;;;11.27;;
80179;SDS011;69505;52.134;5.438;2023-09-08T03:58:19;15.05;;;11.75;;
80179;SDS011;69505;52.134;5.438;2023-09-08T04:00:45;14.93;;;10.88;;
80179;SDS011;69505;52.134;5.438;2023-09-08T04:03:12;12.93;;;11.20;;
80179;SDS011;69505;52.134;5.438;2023-09-08T04:05:39;14.55;;;11.50;;
80179;SDS011;69505;52.134;5.438;2023-09-08T04:08:05;15.32;;;12.05;;
80179;SDS011;69505;52.134;5.438;2023-09-08T04:10:32;17.50;;;12.15;;
80179;SDS011;69505;52.134;5.438;2023-09-08T04:12:59;16.08;;;12.90;;
80179;SDS011;69505;52.134;5.438;2023-09-08T04:15:26;13.32;;;11.15;;
80179;SDS011;69505;52.134;5.438;2023-09-08T04:17:52;17.83;;;12.43;;
80179;SDS011;69505;52.134;5.438;2023-09-08T04:20:19;15.13;;;11.77;;
80179;SDS011;69505;52.134;5.438;2023-09-08T04:22:46;14.10;;;11.85;;
80179;SDS011;69505;52.134;5.438;2023-09-08T04:25:13;14.35;;;11.77;;
80179;SDS011;69505;52.134;5.438;2023-09-08T04:27:40;13.45;;;10.45;;
80179;SDS011;69505;52.134;5.438;2023-09-08T04:30:07;15.52;;;11.68;;
80179;SDS011;69505;52.134;5.438;2023-09-08T04:32:37;13.18;;;10.73;;
80179;SDS011;69505;52.134;5.438;2023-09-08T04:35:04;19.80;;;11.95;;
80179;SDS011;69505;52.134;5.438;2023-09-08T04:37:33;14.07;;;11.40;;
80179;SDS011;69505;52.134;5.438;2023-09-08T04:40:00;15.32;;;12.05;;
80179;SDS011;69505;52.134;5.438;2023-09-08T04:42:27;16.27;;;11.82;;
80179;SDS011;69505;52.134;5.438;2023-09-08T04:44:53;15.50;;;12.40;;
80179;SDS011;69505;52.134;5.438;2023-09-08T04:47:20;14.27;;;11.63;;
80179;SDS011;69505;52.134;5.438;2023-09-08T04:49:46;17.42;;;11.88;;
80179;SDS011;69505;52.134;5.438;2023-09-08T04:52:13;16.00;;;11.90;;
80179;SDS011;69505;52.134;5.438;2023-09-08T04:54:41;17.00;;;12.90;;
80179;SDS011;69505;52.134;5.438;2023-09-08T04:57:07;17.98;;;12.73;;
80179;SDS011;69505;52.134;5.438;2023-09-08T04:59:48;15.27;;;12.32;;
80179;SDS011;69505;52.134;5.438;2023-09-08T05:02:15;15.68;;;12.43;;
80179;SDS011;69505;52.134;5.438;2023-09-08T05:04:41;15.05;;;11.55;;
80179;SDS011;69505;52.134;5.438;2023-09-08T05:07:08;14.75;;;10.80;;
80179;SDS011;69505;52.134;5.438;2023-09-08T05:09:34;14.30;;;11.20;;
80179;SDS011;69505;52.134;5.438;2023-09-08T05:12:01;16.52;;;12.10;;
80179;SDS011;69505;52.134;5.438;2023-09-08T05:14:28;15.63;;;12.55;;
80179;SDS011;69505;52.134;5.438;2023-09-08T05:16:54;16.92;;;12.18;;
80179;SDS011;69505;52.134;5.438;2023-09-08T05:19:22;20.13;;;12.80;;
80179;SDS011;69505;52.134;5.438;2023-09-08T05:21:50;15.27;;;11.98;;
80179;SDS011;69505;52.134;5.438;2023-09-08T05:24:18;14.07;;;11.95;;
80179;SDS011;69505;52.134;5.438;2023-09-08T05:26:44;17.48;;;12.52;;
80179;SDS011;69505;52.134;5.438;2023-09-08T05:29:11;17.83;;;12.13;;
80179;SDS011;69505;52.134;5.438;2023-09-08T05:31:37;17.73;;;12.73;;
80179;SDS011;69505;52.134;5.438;2023-09-08T05:34:04;19.73;;;13.45;;
80179;SDS011;69505;52.134;5.438;2023-09-08T05:36:31;18.85;;;13.63;;
80179;SDS011;69505;52.134;5.438;2023-09-08T05:38:59;16.63;;;11.85;;
80179;SDS011;69505;52.134;5.438;2023-09-08T05:41:25;17.10;;;13.32;;
80179;SDS011;69505;52.134;5.438;2023-09-08T05:43:52;18.23;;;13.07;;
80179;SDS011;69505;52.134;5.438;2023-09-08T05:46:19;16.75;;;12.45;;
80179;SDS011;69505;52.134;5.438;2023-09-08T05:48:46;16.92;;;12.20;;
80179;SDS011;69505;52.134;5.438;2023-09-08T05:51:13;15.75;;;11.55;;
80179;SDS011;69505;52.134;5.438;2023-09-08T05:53:41;17.60;;;12.60;;
80179;SDS011;69505;52.134;5.438;2023-09-08T05:56:08;15.88;;;11.68;;
80179;SDS011;69505;52.134;5.438;2023-09-08T05:58:35;16.48;;;12.52;;
80179;SDS011;69505;52.134;5.438;2023-09-08T06:01:02;16.95;;;12.05;;
80179;SDS011;69505;52.134;5.438;2023-09-08T06:03:29;18.15;;;12.35;;
80179;SDS011;69505;52.134;5.438;2023-09-08T06:05:56;16.80;;;12.23;;
80179;SDS011;69505;52.134;5.438;2023-09-08T06:08:23;16.75;;;12.27;;
80179;SDS011;69505;52.134;5.438;2023-09-08T06:10:50;18.67;;;12.85;;
80179;SDS011;69505;52.134;5.438;2023-09-08T06:13:17;14.27;;;11.57;;
80179;SDS011;69505;52.134;5.438;2023-09-08T06:15:44;16.77;;;12.02;;
80179;SDS011;69505;52.134;5.438;2023-09-08T06:18:11;14.38;;;11.60;;
80179;SDS011;69505;52.134;5.438;2023-09-08T06:20:43;16.65;;;12.07;;
80179;SDS011;69505;52.134;5.438;2023-09-08T06:23:12;16.17;;;12.18;;
80179;SDS011;69505;52.134;5.438;2023-09-08T06:25:39;16.20;;;10.75;;
80179;SDS011;69505;52.134;5.438;2023-09-08T06:28:06;14.82;;;11.27;;
80179;SDS011;69505;52.134;5.438;2023-09-08T06:30:33;17.58;;;11.75;;
80179;SDS011;69505;52.134;5.438;2023-09-08T06:32:59;17.02;;;11.98;;
80179;SDS011;69505;52.134;5.438;2023-09-08T06:35:26;14.98;;;12.30;;
80179;SDS011;69505;52.134;5.438;2023-09-08T06:37:53;17.05;;;11.85;;
80179;SDS011;69505;52.134;5.438;2023-09-08T06:40:19;17.40;;;12.00;;
80179;SDS011;69505;52.134;5.438;2023-09-08T06:42:46;16.15;;;12.05;;
80179;SDS011;69505;52.134;5.438;2023-09-08T06:45:13;16.58;;;12.68;;
80179;SDS011;69505;52.134;5.438;2023-09-08T06:47:39;15.32;;;11.77;;
80179;SDS011;69505;52.134;5.438;2023-09-08T06:50:06;16.30;;;11.77;;
80179;SDS011;69505;52.134;5.438;2023-09-08T06:52:33;15.63;;;12.02;;
80179;SDS011;69505;52.134;5.438;2023-09-08T06:55:00;16.92;;;12.15;;
80179;SDS011;69505;52.134;5.438;2023-09-08T06:57:26;17.25;;;12.07;;
80179;SDS011;69505;52.134;5.438;2023-09-08T06:59:53;15.38;;;11.27;;
80179;SDS011;69505;52.134;5.438;2023-09-08T07:02:19;18.88;;;12.02;;
80179;SDS011;69505;52.134;5.438;2023-09-08T07:04:47;14.65;;;12.27;;
80179;SDS011;69505;52.134;5.438;2023-09-08T07:07:13;16.60;;;11.95;;
80179;SDS011;69505;52.134;5.438;2023-09-08T07:09:40;17.02;;;11.90;;
80179;SDS011;69505;52.134;5.438;2023-09-08T07:12:07;16.58;;;11.35;;
80179;SDS011;69505;52.134;5.438;2023-09-08T07:14:33;17.98;;;12.45;;
80179;SDS011;69505;52.134;5.438;2023-09-08T07:17:00;15.57;;;11.82;;
80179;SDS011;69505;52.134;5.438;2023-09-08T07:19:27;16.02;;;12.45;;
80179;SDS011;69505;52.134;5.438;2023-09-08T07:21:53;19.05;;;11.77;;
80179;SDS011;69505;52.134;5.438;2023-09-08T07:24:20;16.48;;;12.20;;
80179;SDS011;69505;52.134;5.438;2023-09-08T07:26:47;15.27;;;10.98;;
80179;SDS011;69505;52.134;5.438;2023-09-08T07:29:14;19.42;;;12.40;;
80179;SDS011;69505;52.134;5.438;2023-09-08T07:31:40;15.52;;;12.00;;
80179;SDS011;69505;52.134;5.438;2023-09-08T07:34:07;18.90;;;11.82;;
80179;SDS011;69505;52.134;5.438;2023-09-08T07:36:35;16.75;;;11.98;;
80179;SDS011;69505;52.134;5.438;2023-09-08T07:39:02;17.20;;;11.65;;
80179;SDS011;69505;52.134;5.438;2023-09-08T07:41:29;19.23;;;12.15;;
80179;SDS011;69505;52.134;5.438;2023-09-08T07:43:55;18.77;;;11.57;;
80179;SDS011;69505;52.134;5.438;2023-09-08T07:46:22;16.00;;;10.13;;
80179;SDS011;69505;52.134;5.438;2023-09-08T07:48:49;13.68;;;10.35;;
80179;SDS011;69505;52.134;5.438;2023-09-08T07:51:16;14.65;;;10.18;;
80179;SDS011;69505;52.134;5.438;2023-09-08T07:53:42;13.27;;;9.95;;
80179;SDS011;69505;52.134;5.438;2023-09-08T07:56:09;13.85;;;10.27;;
80179;SDS011;69505;52.134;5.438;2023-09-08T07:58:36;14.35;;;10.65;;
80179;SDS011;69505;52.134;5.438;2023-09-08T08:01:03;12.88;;;10.02;;
80179;SDS011;69505;52.134;5.438;2023-09-08T08:03:30;15.85;;;8.93;;
80179;SDS011;69505;52.134;5.438;2023-09-08T08:05:57;12.90;;;10.00;;
80179;SDS011;69505;52.134;5.438;2023-09-08T08:08:24;12.48;;;9.85;;
80179;SDS011;69505;52.134;5.438;2023-09-08T08:10:51;16.35;;;10.48;;
80179;SDS011;69505;52.134;5.438;2023-09-08T08:13:17;12.55;;;9.43;;
80179;SDS011;69505;52.134;5.438;2023-09-08T08:15:44;11.15;;;8.57;;
80179;SDS011;69505;52.134;5.438;2023-09-08T08:18:13;14.77;;;10.27;;
80179;SDS011;69505;52.134;5.438;2023-09-08T08:20:40;13.40;;;10.02;;
80179;SDS011;69505;52.134;5.438;2023-09-08T08:23:07;12.35;;;9.13;;
80179;SDS011;69505;52.134;5.438;2023-09-08T08:25:34;13.10;;;9.57;;
80179;SDS011;69505;52.134;5.438;2023-09-08T08:28:01;15.18;;;10.05;;
80179;SDS011;69505;52.134;5.438;2023-09-08T08:30:28;13.93;;;9.98;;
80179;SDS011;69505;52.134;5.438;2023-09-08T08:32:56;11.90;;;9.30;;
80179;SDS011;69505;52.134;5.438;2023-09-08T08:35:22;11.52;;;9.30;;
80179;SDS011;69505;52.134;5.438;2023-09-08T08:37:49;13.65;;;10.40;;
80179;SDS011;69505;52.134;5.438;2023-09-08T08:40:16;15.18;;;10.25;;
80179;SDS011;69505;52.134;5.438;2023-09-08T08:42:43;12.05;;;8.57;;
80179;SDS011;69505;52.134;5.438;2023-09-08T08:45:10;13.32;;;9.70;;
80179;SDS011;69505;52.134;5.438;2023-09-08T08:47:38;10.00;;;8.13;;
80179;SDS011;69505;52.134;5.438;2023-09-08T08:50:06;12.57;;;9.32;;
80179;SDS011;69505;52.134;5.438;2023-09-08T08:52:36;12.55;;;8.38;;
80179;SDS011;69505;52.134;5.438;2023-09-08T08:55:04;9.90;;;8.32;;
80179;SDS011;69505;52.134;5.438;2023-09-08T08:57:31;11.10;;;7.82;;
80179;SDS011;69505;52.134;5.438;2023-09-08T08:59:59;9.32;;;7.50;;
80179;SDS011;69505;52.134;5.438;2023-09-08T09:02:27;11.95;;;8.02;;
80179;SDS011;69505;52.134;5.438;2023-09-08T09:04:54;9.30;;;7.95;;
80179;SDS011;69505;52.134;5.438;2023-09-08T09:07:22;10.30;;;7.07;;
80179;SDS011;69505;52.134;5.438;2023-09-08T09:09:49;9.02;;;6.93;;
80179;SDS011;69505;52.134;5.438;2023-09-08T09:17:14;10.27;;;6.32;;
80179;SDS011;69505;52.134;5.438;2023-09-08T09:19:41;8.73;;;6.38;;
80179;SDS011;69505;52.134;5.438;2023-09-08T09:22:08;8.23;;;6.00;;
80179;SDS011;69505;52.134;5.438;2023-09-08T09:24:36;12.30;;;6.28;;
80179;SDS011;69505;52.134;5.438;2023-09-08T09:27:13;9.05;;;5.95;;
80179;SDS011;69505;52.134;5.438;2023-09-08T09:29:47;8.23;;;5.80;;
80179;SDS011;69505;52.134;5.438;2023-09-08T09:32:15;6.57;;;5.88;;
80179;SDS011;69505;52.134;5.438;2023-09-08T09:34:49;8.55;;;5.90;;
80179;SDS011;69505;52.134;5.438;2023-09-08T09:37:19;9.25;;;5.82;;
80179;SDS011;69505;52.134;5.438;2023-09-08T09:39:50;8.52;;;5.95;;
80179;SDS011;69505;52.134;5.438;2023-09-08T09:42:19;11.18;;;5.38;;
80179;SDS011;69505;52.134;5.438;2023-09-08T09:44:47;6.70;;;5.32;;
80179;SDS011;69505;52.134;5.438;2023-09-08T09:47:15;6.28;;;5.22;;
80179;SDS011;69505;52.134;5.438;2023-09-08T09:49:43;8.77;;;5.32;;
80179;SDS011;69505;52.134;5.438;2023-09-08T09:52:11;6.82;;;4.90;;
80179;SDS011;69505;52.134;5.438;2023-09-08T09:54:42;8.27;;;5.60;;
80179;SDS011;69505;52.134;5.438;2023-09-08T09:57:13;8.73;;;6.32;;
80179;SDS011;69505;52.134;5.438;2023-09-08T09:59:41;10.32;;;6.40;;
80179;SDS011;69505;52.134;5.438;2023-09-08T10:02:14;9.50;;;6.05;;
80179;SDS011;69505;52.134;5.438;2023-09-08T10:04:41;8.38;;;6.63;;
80179;SDS011;69505;52.134;5.438;2023-09-08T10:07:08;8.40;;;6.32;;
80179;SDS011;69505;52.134;5.438;2023-09-08T10:09:35;8.18;;;5.97;;
80179;SDS011;69505;52.134;5.438;2023-09-08T10:12:03;9.63;;;7.20;;
80179;SDS011;69505;52.134;5.438;2023-09-08T10:14:32;10.13;;;6.32;;
80179;SDS011;69505;52.134;5.438;2023-09-08T10:17:08;7.53;;;5.95;;
80179;SDS011;69505;52.134;5.438;2023-09-08T10:19:38;8.40;;;6.13;;
80179;SDS011;69505;52.134;5.438;2023-09-08T10:22:13;8.05;;;5.57;;
80179;SDS011;69505;52.134;5.438;2023-09-08T10:24:46;10.65;;;6.65;;
80179;SDS011;69505;52.134;5.438;2023-09-08T10:27:13;8.85;;;6.25;;
80179;SDS011;69505;52.134;5.438;2023-09-08T10:29:41;7.35;;;5.05;;
80179;SDS011;69505;52.134;5.438;2023-09-08T10:32:08;7.95;;;5.75;;
80179;SDS011;69505;52.134;5.438;2023-09-08T10:34:36;10.73;;;5.97;;
80179;SDS011;69505;52.134;5.438;2023-09-08T10:37:17;8.45;;;6.10;;
80179;SDS011;69505;52.134;5.438;2023-09-08T10:39:45;6.90;;;5.65;;
80179;SDS011;69505;52.134;5.438;2023-09-08T10:47:18;7.85;;;5.22;;
80179;SDS011;69505;52.134;5.438;2023-09-08T10:49:45;7.47;;;5.00;;
80179;SDS011;69505;52.134;5.438;2023-09-08T10:52:12;7.53;;;5.38;;
80179;SDS011;69505;52.134;5.438;2023-09-08T10:54:49;8.60;;;5.60;;
80179;SDS011;69505;52.134;5.438;2023-09-08T10:57:18;7.03;;;5.03;;
80179;SDS011;69505;52.134;5.438;2023-09-08T10:59:53;10.55;;;5.97;;
80179;SDS011;69505;52.134;5.438;2023-09-08T11:02:34;6.70;;;5.88;;
80179;SDS011;69505;52.134;5.438;2023-09-08T11:05:11;10.43;;;6.38;;
80179;SDS011;69505;52.134;5.438;2023-09-08T11:07:45;7.35;;;5.53;;
80179;SDS011;69505;52.134;5.438;2023-09-08T11:10:12;9.15;;;5.25;;
80179;SDS011;69505;52.134;5.438;2023-09-08T11:12:39;8.18;;;5.82;;
80179;SDS011;69505;52.134;5.438;2023-09-08T11:15:06;7.28;;;5.35;;
80179;SDS011;69505;52.134;5.438;2023-09-08T11:17:35;9.63;;;5.55;;
80179;SDS011;69505;52.134;5.438;2023-09-08T11:20:06;10.10;;;5.60;;
80179;SDS011;69505;52.134;5.438;2023-09-08T11:22:35;7.22;;;5.20;;
80179;SDS011;69505;52.134;5.438;2023-09-08T11:25:03;7.68;;;5.93;;
80179;SDS011;69505;52.134;5.438;2023-09-08T11:27:33;9.40;;;5.93;;
80179;SDS011;69505;52.134;5.438;2023-09-08T11:30:00;7.90;;;5.15;;
80179;SDS011;69505;52.134;5.438;2023-09-08T11:32:33;6.82;;;5.03;;
80179;SDS011;69505;52.134;5.438;2023-09-08T11:35:03;5.63;;;4.65;;
80179;SDS011;69505;52.134;5.438;2023-09-08T11:37:34;9.05;;;4.95;;
80179;SDS011;69505;52.134;5.438;2023-09-08T11:40:04;9.35;;;5.80;;
80179;SDS011;69505;52.134;5.438;2023-09-08T11:42:36;6.75;;;4.63;;
80179;SDS011;69505;52.134;5.438;2023-09-08T11:45:02;6.53;;;4.25;;
80179;SDS011;69505;52.134;5.438;2023-09-08T11:47:30;8.38;;;5.15;;
80179;SDS011;69505;52.134;5.438;2023-09-08T11:49:57;8.52;;;5.25;;
80179;SDS011;69505;52.134;5.438;2023-09-08T11:52:24;8.02;;;4.65;;
80179;SDS011;69505;52.134;5.438;2023-09-08T11:54:51;7.18;;;5.20;;
80179;SDS011;69505;52.134;5.438;2023-09-08T11:57:32;8.15;;;5.18;;
80179;SDS011;69505;52.134;5.438;2023-09-08T11:59:59;7.15;;;5.40;;
80179;SDS011;69505;52.134;5.438;2023-09-08T12:02:35;6.90;;;4.90;;
80179;SDS011;69505;52.134;5.438;2023-09-08T12:05:03;7.30;;;5.10;;
80179;SDS011;69505;52.134;5.438;2023-09-08T12:07:30;7.88;;;4.95;;
80179;SDS011;69505;52.134;5.438;2023-09-08T12:09:57;9.00;;;4.90;;
80179;SDS011;69505;52.134;5.438;2023-09-08T12:12:25;6.07;;;4.95;;
80179;SDS011;69505;52.134;5.438;2023-09-08T12:14:53;7.13;;;4.80;;
80179;SDS011;69505;52.134;5.438;2023-09-08T12:17:20;5.32;;;4.43;;
80179;SDS011;69505;52.134;5.438;2023-09-08T12:19:51;7.13;;;4.80;;
80179;SDS011;69505;52.134;5.438;2023-09-08T12:22:18;7.07;;;4.38;;
80179;SDS011;69505;52.134;5.438;2023-09-08T12:24:57;6.97;;;4.97;;
80179;SDS011;69505;52.134;5.438;2023-09-08T12:27:25;9.10;;;4.90;;
80179;SDS011;69505;52.134;5.438;2023-09-08T12:29:53;6.72;;;4.60;;
80179;SDS011;69505;52.134;5.438;2023-09-08T12:32:20;6.65;;;4.53;;
80179;SDS011;69505;52.134;5.438;2023-09-08T12:34:49;5.97;;;4.95;;
80179;SDS011;69505;52.134;5.438;2023-09-08T12:37:24;7.90;;;4.47;;
80179;SDS011;69505;52.134;5.438;2023-09-08T12:39:53;6.45;;;4.45;;
80179;SDS011;69505;52.134;5.438;2023-09-08T12:42:20;6.35;;;4.60;;
80179;SDS011;69505;52.134;5.438;2023-09-08T12:44:47;7.63;;;4.60;;
80179;SDS011;69505;52.134;5.438;2023-09-08T12:47:15;6.47;;;3.53;;
80179;SDS011;69505;52.134;5.438;2023-09-08T12:49:42;7.53;;;4.70;;
80179;SDS011;69505;52.134;5.438;2023-09-08T12:52:08;6.82;;;4.38;;
80179;SDS011;69505;52.134;5.438;2023-09-08T12:54:35;5.95;;;4.43;;
80179;SDS011;69505;52.134;5.438;2023-09-08T12:57:02;5.45;;;4.20;;
80179;SDS011;69505;52.134;5.438;2023-09-08T12:59:32;7.60;;;4.28;;
80179;SDS011;69505;52.134;5.438;2023-09-08T13:01:58;4.90;;;3.30;;
80179;SDS011;69505;52.134;5.438;2023-09-08T13:04:25;7.38;;;4.80;;
80179;SDS011;69505;52.134;5.438;2023-09-08T13:06:51;9.73;;;4.82;;
80179;SDS011;69505;52.134;5.438;2023-09-08T13:09:18;7.45;;;4.55;;
80179;SDS011;69505;52.134;5.438;2023-09-08T13:11:45;10.55;;;4.85;;
80179;SDS011;69505;52.134;5.438;2023-09-08T13:14:13;7.93;;;4.78;;
80179;SDS011;69505;52.134;5.438;2023-09-08T13:16:39;6.07;;;4.40;;
80179;SDS011;69505;52.134;5.438;2023-09-08T13:19:06;6.32;;;4.72;;
80179;SDS011;69505;52.134;5.438;2023-09-08T13:21:33;8.48;;;4.93;;
80179;SDS011;69505;52.134;5.438;2023-09-08T13:23:59;9.98;;;4.97;;
80179;SDS011;69505;52.134;5.438;2023-09-08T13:26:26;6.05;;;4.70;;
80179;SDS011;69505;52.134;5.438;2023-09-08T13:28:53;5.53;;;4.93;;
80179;SDS011;69505;52.134;5.438;2023-09-08T13:31:19;6.80;;;4.57;;
80179;SDS011;69505;52.134;5.438;2023-09-08T13:33:46;6.53;;;4.85;;
80179;SDS011;69505;52.134;5.438;2023-09-08T13:36:12;6.00;;;4.20;;
80179;SDS011;69505;52.134;5.438;2023-09-08T13:38:39;6.97;;;4.75;;
80179;SDS011;69505;52.134;5.438;2023-09-08T13:41:06;8.95;;;4.70;;
80179;SDS011;69505;52.134;5.438;2023-09-08T13:43:32;9.88;;;5.43;;
80179;SDS011;69505;52.134;5.438;2023-09-08T13:45:59;8.68;;;5.20;;
80179;SDS011;69505;52.134;5.438;2023-09-08T13:48:26;6.38;;;4.68;;
80179;SDS011;69505;52.134;5.438;2023-09-08T13:50:54;5.28;;;4.78;;
80179;SDS011;69505;52.134;5.438;2023-09-08T13:53:21;7.80;;;5.00;;
80179;SDS011;69505;52.134;5.438;2023-09-08T13:55:58;8.27;;;4.70;;
80179;SDS011;69505;52.134;5.438;2023-09-08T13:58:29;8.93;;;5.38;;
80179;SDS011;69505;52.134;5.438;2023-09-08T14:01:14;8.43;;;4.80;;
80179;SDS011;69505;52.134;5.438;2023-09-08T14:03:45;6.38;;;4.45;;
80179;SDS011;69505;52.134;5.438;2023-09-08T14:06:15;7.22;;;5.25;;
80179;SDS011;69505;52.134;5.438;2023-09-08T14:08:50;6.55;;;4.32;;
80179;SDS011;69505;52.134;5.438;2023-09-08T14:11:21;7.68;;;4.80;;
80179;SDS011;69505;52.134;5.438;2023-09-08T14:14:00;7.38;;;5.10;;
80179;SDS011;69505;52.134;5.438;2023-09-08T14:16:27;6.35;;;3.60;;
80179;SDS011;69505;52.134;5.438;2023-09-08T14:18:53;7.22;;;5.03;;
80179;SDS011;69505;52.134;5.438;2023-09-08T14:21:20;9.68;;;5.35;;
80179;SDS011;69505;52.134;5.438;2023-09-08T14:23:47;6.43;;;5.20;;
80179;SDS011;69505;52.134;5.438;2023-09-08T14:26:14;7.50;;;4.85;;
80179;SDS011;69505;52.134;5.438;2023-09-08T14:28:41;5.88;;;4.68;;
80179;SDS011;69505;52.134;5.438;2023-09-08T14:31:07;7.57;;;4.25;;
80179;SDS011;69505;52.134;5.438;2023-09-08T14:33:34;10.05;;;4.22;;
80179;SDS011;69505;52.134;5.438;2023-09-08T14:36:01;5.38;;;3.85;;
80179;SDS011;69505;52.134;5.438;2023-09-08T14:38:28;6.10;;;3.92;;
80179;SDS011;69505;52.134;5.438;2023-09-08T14:40:59;9.10;;;4.35;;
80179;SDS011;69505;52.134;5.438;2023-09-08T14:43:27;7.03;;;3.45;;
80179;SDS011;69505;52.134;5.438;2023-09-08T14:45:54;6.20;;;4.00;;
80179;SDS011;69505;52.134;5.438;2023-09-08T14:48:23;7.13;;;4.18;;
80179;SDS011;69505;52.134;5.438;2023-09-08T14:50:51;5.85;;;3.90;;
80179;SDS011;69505;52.134;5.438;2023-09-08T14:53:17;7.15;;;4.22;;
80179;SDS011;69505;52.134;5.438;2023-09-08T14:55:44;5.22;;;4.20;;